Terminal Aerodrome Forecast
Issued by NWS Sioux Falls, SD

Home | Current Version | Previous Version | Text Only | Print | Product List | Glossary On
Versions: 1 2 3 4 5 6 7 8 9 10 11 12 13 14
000
FTUS43 KFSD 270500
TAFHON
TAF
KHON 270523Z 2706/2806 31010KT P6SM SKC
     FM271400 33015G23KT P6SM SCT035
     FM280100 36007KT P6SM BKN050=

USA.gov is the U.S. government's official web portal to all federal, state and local government web resources and services.